Time;durP1;ratioP1;P1;durP2;ratioP2;P2;SDS_P1;SDS_P2;PMS_P1;PMS_P2;Temp;Humidity;BMP_temperature;BMP_pressure;BME280_temperature;BME280_humidity;BME280_pressure;Samples;Min_cycle;Max_cycle;Signal;HPM_P1;HPM_P2
2022/09/26 00:02:03;;;;;;;5.22;2.60;;;;;;;;;;6182827;23;20012;-77
2022/09/26 00:04:30;;;;;;;8.50;3.25;;;;;;;;;;6183312;23;20028;-77
2022/09/26 00:06:56;;;;;;;7.53;2.85;;;13.40;99.90;;;;;;6181601;23;20100;-76
2022/09/26 00:09:23;;;;;;;6.47;3.03;;;13.50;99.90;;;;;;6182910;23;20044;-77
2022/09/26 00:11:49;;;;;;;6.07;2.75;;;;;;;;;;6182899;23;20456;-77
2022/09/26 00:14:22;;;;;;;6.03;3.05;;;13.60;99.90;;;;;;6182619;23;20004;-76
2022/09/26 00:16:47;;;;;;;4.25;2.83;;;13.70;99.90;;;;;;6181883;23;20005;-77
2022/09/26 00:19:13;;;;;;;12.23;3.45;;;13.40;99.90;;;;;;6182977;23;20001;-76
2022/09/26 00:21:39;;;;;;;5.28;2.58;;;;;;;;;;6183131;23;20464;-76
2022/09/26 00:24:06;;;;;;;4.40;2.10;;;;;;;;;;6182625;23;20436;-76
2022/09/26 00:26:33;;;;;;;4.82;2.67;;;13.10;99.90;;;;;;6183092;23;20017;-76
2022/09/26 00:29:03;;;;;;;4.13;2.35;;;13.00;99.90;;;;;;6182645;23;20404;-76
2022/09/26 00:31:31;;;;;;;4.93;2.38;;;12.90;99.90;;;;;;6181265;23;20013;-76
2022/09/26 00:33:57;;;;;;;6.50;2.85;;;;;;;;;;6182747;23;20088;-77
2022/09/26 00:36:23;;;;;;;6.97;3.40;;;12.70;99.90;;;;;;6182831;23;20372;-77
2022/09/26 00:38:49;;;;;;;5.07;3.05;;;12.40;99.90;;;;;;6182432;23;20001;-77
2022/09/26 00:41:16;;;;;;;4.32;3.15;;;;;;;;;;6182572;23;20005;-76
2022/09/26 00:43:47;;;;;;;4.68;2.85;;;12.60;99.90;;;;;;6183005;23;19997;-77
2022/09/26 00:46:36;;;;;;;4.65;2.78;;;12.40;99.90;;;;;;6181867;23;20013;-77
2022/09/26 00:49:25;;;;;;;5.57;3.00;;;12.30;99.90;;;;;;6181021;23;20380;-77
2022/09/26 00:52:02;;;;;;;5.47;2.70;;;12.30;99.90;;;;;;6182561;23;20043;-77
2022/09/26 00:54:29;;;;;;;4.30;2.67;;;12.30;99.90;;;;;;6182874;23;20057;-77
2022/09/26 00:57:02;;;;;;;3.88;2.75;;;12.30;99.90;;;;;;6182185;23;20021;-76
2022/09/26 00:59:33;;;;;;;5.28;3.13;;;12.00;99.90;;;;;;6182473;23;20008;-77
2022/09/26 01:01:59;;;;;;;6.25;3.40;;;12.20;99.90;;;;;;6182608;23;20005;-77
2022/09/26 01:04:27;;;;;;;6.55;3.03;;;12.10;99.90;;;;;;6182619;23;20007;-76
2022/09/26 01:06:56;;;;;;;5.47;2.72;;;12.20;99.90;;;;;;6182214;23;20013;-77
2022/09/26 01:09:22;;;;;;;6.75;2.90;;;;;;;;;;6182355;23;20005;-77
2022/09/26 01:11:48;;;;;;;5.65;2.85;;;;;;;;;;6182120;23;20055;-76
2022/09/26 01:14:14;;;;;;;6.75;2.83;;;;;;;;;;6182007;23;20027;-77
2022/09/26 01:16:46;;;;;;;6.63;3.03;;;12.20;99.90;;;;;;6182355;23;20005;-77
2022/09/26 01:19:23;;;;;;;3.58;2.58;;;12.00;99.90;;;;;;6182467;23;20008;-77
2022/09/26 01:22:09;;;;;;;4.73;3.10;;;12.10;99.90;;;;;;6182349;23;20031;-77
2022/09/26 01:24:38;;;;;;;8.00;3.03;;;12.00;99.90;;;;;;6182112;23;20005;-77
2022/09/26 01:27:28;;;;;;;5.60;2.50;;;11.90;99.90;;;;;;6181905;23;20280;-77
2022/09/26 01:30:08;;;;;;;5.00;3.05;;;11.80;99.90;;;;;;6181785;23;20001;-77
2022/09/26 01:33:15;;;;;;;3.08;2.13;;;11.50;99.90;;;;;;6182211;23;20459;-77
2022/09/26 01:35:40;;;;;;;;;;;11.70;99.90;;;;;;6182909;23;20012;-77
2022/09/26 01:38:25;;;;;;;5.93;2.72;;;11.50;99.90;;;;;;6181878;23;19904;-76
2022/09/26 01:41:06;;;;;;;15.95;2.65;;;11.50;99.90;;;;;;6182309;23;20341;-77
2022/09/26 01:43:35;;;;;;;6.55;3.10;;;11.40;99.90;;;;;;6181636;23;20734;-77
2022/09/26 01:46:26;;;;;;;3.80;2.50;;;11.20;99.90;;;;;;6181308;23;20009;-77
2022/09/26 01:49:01;;;;;;;3.97;2.65;;;11.40;99.90;;;;;;6119695;23;20096;-77
2022/09/26 01:51:27;;;;;;;9.88;2.97;;;;;;;;;;6119805;23;20014;-77
2022/09/26 01:54:02;;;;;;;4.30;2.45;;;11.30;99.90;;;;;;6119759;23;20493;-77
2022/09/26 01:56:32;;;;;;;4.45;2.92;;;11.00;99.90;;;;;;6119687;23;20508;-77
2022/09/26 01:59:24;;;;;;;7.47;2.83;;;11.30;99.90;;;;;;6119263;23;20089;-77
2022/09/26 02:01:54;;;;;;;3.63;2.00;;;11.30;99.90;;;;;;6119245;23;20200;-77
2022/09/26 02:04:24;;;;;;;4.57;2.38;;;11.20;99.90;;;;;;6119977;23;20061;-77
2022/09/26 02:06:56;;;;;;;4.57;3.10;;;11.30;99.90;;;;;;6119242;23;20021;-77
2022/09/26 02:09:33;;;;;;;3.97;2.85;;;11.20;99.90;;;;;;6119820;23;20088;-77
2022/09/26 02:12:05;;;;;;;6.38;2.53;;;11.10;99.90;;;;;;6119162;23;20010;-77
2022/09/26 02:14:35;;;;;;;3.97;2.53;;;11.10;99.90;;;;;;6119268;23;20014;-77
2022/09/26 02:17:07;;;;;;;4.00;2.42;;;11.10;99.90;;;;;;6119679;23;20010;-76
2022/09/26 02:19:57;;;;;;;5.00;3.50;;;11.10;99.90;;;;;;6119677;23;20041;-77
2022/09/26 02:22:30;;;;;;;6.60;3.10;;;13.50;99.90;;;;;;6119853;23;20006;-76
2022/09/26 02:24:56;;;;;;;4.57;2.50;;;;;;;;;;6131810;23;20012;-76
2022/09/26 02:27:24;;;;;;;5.25;3.00;;;10.90;99.90;;;;;;6181615;23;20056;-76
2022/09/26 02:29:50;;;;;;;6.15;2.78;;;;;;;;;;6181856;23;20047;-77
2022/09/26 02:32:20;;;;;;;5.25;2.63;;;11.40;99.90;;;;;;6182081;23;20005;-77
2022/09/26 02:34:47;;;;;;;4.80;2.70;;;11.00;99.90;;;;;;6181580;23;20017;-77
2022/09/26 02:37:19;;;;;;;10.35;2.60;;;11.10;99.90;;;;;;6182050;23;20108;-76
2022/09/26 02:39:46;;;;;;;5.70;2.97;;;11.20;99.90;;;;;;6182176;23;20444;-77
2022/09/26 02:42:26;;;;;;;6.93;3.27;;;11.00;99.90;;;;;;6183811;23;20036;-78
2022/09/26 02:45:34;;;;;;;6.70;2.88;;;10.70;99.90;;;;;;6183296;23;20814;-77
2022/09/26 02:48:24;;;;;;;6.13;3.38;;;11.10;99.90;;;;;;6183862;23;20016;-77
2022/09/26 02:51:33;;;;;;;7.95;3.13;;;11.10;99.90;;;;;;6183758;23;20068;-77
2022/09/26 02:54:22;;;;;;;5.78;3.13;;;11.00;99.90;;;;;;6091832;23;20010;-77
2022/09/26 02:57:21;;;;;;;4.45;2.58;;;10.80;99.90;;;;;;6091837;23;20057;-77
2022/09/26 02:59:55;;;;;;;9.52;3.78;;;11.00;99.90;;;;;;6092130;23;20029;-77
2022/09/26 03:02:31;;;;;;;6.53;2.63;;;11.10;99.90;;;;;;6092318;23;20092;-77
2022/09/26 03:05:08;;;;;;;5.10;3.00;;;11.20;99.90;;;;;;6092179;23;20466;-76
2022/09/26 03:07:41;;;;;;;7.70;3.72;;;11.20;99.90;;;;;;6092138;23;20582;-77
2022/09/26 03:10:09;;;;;;;6.20;2.85;;;11.30;99.90;;;;;;6091905;23;20088;-77
2022/09/26 03:12:36;;;;;;;8.07;2.95;;;11.00;99.90;;;;;;6091987;23;20006;-76
2022/09/26 03:15:05;;;;;;;6.63;3.45;;;11.10;99.90;;;;;;6091381;23;20010;-77
2022/09/26 03:17:33;;;;;;;4.07;2.63;;;11.00;99.90;;;;;;6092011;23;20078;-77
2022/09/26 03:20:10;;;;;;;7.13;3.17;;;10.80;99.90;;;;;;6091807;23;20018;-77
2022/09/26 03:22:36;;;;;;;3.83;3.00;;;;;;;;;;6067908;23;20026;-76
2022/09/26 03:25:05;;;;;;;8.48;2.92;;;10.80;99.90;;;;;;6091859;23;20020;-76
2022/09/26 03:27:31;;;;;;;5.65;2.42;;;;;;;;;;6091753;23;20038;-76
2022/09/26 03:29:58;;;;;;;6.18;2.60;;;;;;;;;;6094143;23;20766;-77
2022/09/26 03:32:24;;;;;;;5.05;2.50;;;;;;;;;;6183534;23;20095;-77
2022/09/26 03:34:50;;;;;;;4.00;2.53;;;;;;;;;;6183607;23;20072;-77
2022/09/26 03:37:16;;;;;;;13.35;4.25;;;;;;;;;;6183408;23;20510;-77
2022/09/26 03:39:45;;;;;;;5.38;3.10;;;10.50;99.90;;;;;;6182774;23;20005;-77
2022/09/26 03:42:10;;;;;;;7.47;2.42;;;10.50;99.90;;;;;;6183213;23;20008;-77
2022/09/26 03:44:36;;;;;;;6.07;2.78;;;;;;;;;;6182850;23;20128;-76
2022/09/26 03:47:02;;;;;;;7.88;2.53;;;10.80;99.90;;;;;;6183287;23;20393;-77
2022/09/26 03:49:28;;;;;;;5.18;3.42;;;10.60;99.90;;;;;;6182979;23;20001;-76
2022/09/26 03:51:54;;;;;;;5.63;3.40;;;;;;;;;;6182695;23;20005;-77
2022/09/26 03:54:19;;;;;;;3.60;2.47;;;10.40;99.90;;;;;;6182712;23;20005;-77
2022/09/26 03:56:45;;;;;;;8.07;3.03;;;;;;;;;;6182972;23;20017;-77
2022/09/26 03:59:11;;;;;;;5.72;3.33;;;10.70;99.90;;;;;;6182926;23;20068;-76
2022/09/26 04:01:37;;;;;;;4.53;2.55;;;;;;;;;;6181296;23;20459;-77
2022/09/26 04:04:03;;;;;;;8.20;2.90;;;;;;;;;;6182851;23;20077;-77
2022/09/26 04:06:29;;;;;;;5.38;2.72;;;10.40;99.90;;;;;;6182983;23;20013;-76
2022/09/26 04:08:55;;;;;;;3.92;2.38;;;;;;;;;;6182856;23;19998;-77
2022/09/26 04:11:23;;;;;;;6.90;3.22;;;10.30;99.90;;;;;;6183022;23;20060;-77
2022/09/26 04:13:49;;;;;;;5.13;2.55;;;10.10;99.90;;;;;;6182848;23;19997;-77
2022/09/26 04:16:15;;;;;;;6.93;3.22;;;;;;;;;;6182478;23;20005;-77
2022/09/26 04:18:42;;;;;;;4.40;3.13;;;;;;;;;;6182910;23;20063;-76
2022/09/26 04:21:13;;;;;;;9.38;3.25;;;10.40;99.90;;;;;;6183516;23;20017;-77
2022/09/26 04:23:39;;;;;;;4.03;2.70;;;10.30;99.90;;;;;;6182618;23;20001;-77
2022/09/26 04:26:07;;;;;;;6.72;3.20;;;10.40;99.90;;;;;;6181208;23;20793;-77
2022/09/26 04:28:34;;;;;;;3.83;2.58;;;10.50;99.90;;;;;;6182748;23;20532;-76
2022/09/26 04:31:01;;;;;;;6.75;2.90;;;10.60;99.90;;;;;;6182680;23;20013;-76
2022/09/26 04:33:28;;;;;;;4.82;3.05;;;10.50;99.90;;;;;;6182808;23;20005;-77
2022/09/26 04:35:54;;;;;;;6.93;3.35;;;10.50;99.90;;;;;;6182682;23;20001;-77
2022/09/26 04:38:20;;;;;;;3.85;2.53;;;10.60;99.90;;;;;;6182507;23;20055;-77
2022/09/26 04:40:46;;;;;;;7.00;3.58;;;;;;;;;;6183074;23;20033;-77
2022/09/26 04:43:12;;;;;;;9.45;3.53;;;;;;;;;;6182407;23;20012;-77
2022/09/26 04:45:44;;;;;;;5.72;3.22;;;10.50;99.90;;;;;;6182123;23;20016;-77
2022/09/26 04:48:10;;;;;;;4.75;3.17;;;11.30;99.90;;;;;;6182612;23;20005;-76
2022/09/26 04:50:36;;;;;;;6.65;3.65;;;;;;;;;;6182910;23;20055;-77
2022/09/26 04:53:01;;;;;;;7.85;4.30;;;11.00;99.90;;;;;;6182882;23;20005;-76
2022/09/26 04:55:27;;;;;;;6.20;3.75;;;;;;;;;;6182359;23;20016;-76
2022/09/26 04:57:53;;;;;;;8.10;3.38;;;;;;;;;;6182637;23;20021;-76
2022/09/26 05:00:19;;;;;;;4.28;2.83;;;;;;;;;;6182681;23;20459;-77
2022/09/26 05:02:48;;;;;;;4.82;3.22;;;;;;;;;;6177610;23;20043;-77
2022/09/26 05:05:14;;;;;;;7.28;2.67;;;10.30;99.90;;;;;;6180388;23;20012;-76
2022/09/26 05:07:40;;;;;;;4.97;3.00;;;;;;;;;;6180656;23;20017;-77
2022/09/26 05:10:09;;;;;;;6.93;3.47;;;10.40;99.90;;;;;;6179056;23;19997;-76
2022/09/26 05:12:38;;;;;;;6.75;3.58;;;;;;;;;;6180062;23;20005;-76
2022/09/26 05:15:10;;;;;;;5.97;3.15;;;10.40;99.90;;;;;;6179257;23;20436;-76
2022/09/26 05:17:36;;;;;;;5.75;3.53;;;10.30;99.90;;;;;;6177892;23;20005;-77
2022/09/26 05:20:07;;;;;;;7.00;3.78;;;10.40;99.90;;;;;;6179510;23;20036;-77
2022/09/26 05:22:33;;;;;;;7.18;2.75;;;;;;;;;;6178499;23;20008;-76
2022/09/26 05:27:45;;;;;;;6.00;3.28;;;10.60;99.90;;;;;;6179383;23;20028;-77
2022/09/26 05:30:11;;;;;;;7.18;3.40;;;;;;;;;;6178846;23;20005;-77
2022/09/26 05:32:38;;;;;;;21.27;4.75;;;;;;;;;;6179047;23;20016;-76
2022/09/26 05:35:04;;;;;;;6.38;4.15;;;10.30;99.90;;;;;;6179046;23;20072;-76
2022/09/26 05:37:30;;;;;;;7.28;3.90;;;;;;;;;;6179063;23;20407;-77
2022/09/26 05:42:41;;;;;;;6.03;3.72;;;;;;;;;;6177959;23;20070;-75
2022/09/26 05:45:08;;;;;;;7.18;3.20;;;;;;;;;;6178552;23;20005;-76
2022/09/26 05:47:38;;;;;;;6.28;3.58;;;10.90;99.90;;;;;;6179755;23;20068;-77
2022/09/26 05:50:08;;;;;;;6.75;4.05;;;11.10;99.90;;;;;;6179203;23;20076;-76
2022/09/26 05:52:35;;;;;;;8.02;4.07;;;10.80;99.90;;;;;;6180115;23;20063;-76
2022/09/26 05:55:01;;;;;;;8.00;3.93;;;;;;;;;;6180151;23;20104;-76
2022/09/26 05:57:27;;;;;;;7.53;3.60;;;;;;;;;;6179549;23;20013;-76
2022/09/26 05:59:53;;;;;;;6.32;3.20;;;;;;;;;;6180130;23;20448;-75
2022/09/26 06:02:19;;;;;;;5.60;3.00;;;;;;;;;;6178463;23;20056;-75
2022/09/26 06:04:44;;;;;;;8.20;3.53;;;11.50;99.90;;;;;;6179772;23;20008;-75
2022/09/26 06:07:11;;;;;;;7.30;4.00;;;11.50;99.90;;;;;;6180318;23;20048;-75
2022/09/26 06:09:37;;;;;;;8.68;3.63;;;11.20;99.90;;;;;;6180117;23;20052;-76
2022/09/26 06:12:03;;;;;;;5.82;3.30;;;;;;;;;;6178782;23;20005;-75
2022/09/26 06:14:30;;;;;;;8.82;3.72;;;;;;;;;;6179898;23;20068;-75
2022/09/26 06:16:56;;;;;;;5.20;3.70;;;11.20;99.90;;;;;;6180375;23;20148;-75
2022/09/26 06:19:22;;;;;;;11.65;3.47;;;;;;;;;;6180387;23;20037;-76
2022/09/26 06:21:48;;;;;;;9.32;3.80;;;;;;;;;;6180473;23;20128;-76
2022/09/26 06:24:14;;;;;;;12.63;5.97;;;;;;;;;;6180147;23;19997;-76
2022/09/26 06:26:40;;;;;;;9.68;4.72;;;11.90;99.90;;;;;;6180289;23;20017;-76
2022/09/26 06:29:06;;;;;;;9.18;3.33;;;;;;;;;;6180629;23;20318;-76
2022/09/26 06:31:32;;;;;;;8.85;4.30;;;12.10;99.90;;;;;;6179740;23;20406;-81
2022/09/26 06:34:00;;;;;;;6.90;3.45;;;;;;;;;;6179790;23;20032;-80
2022/09/26 06:36:26;;;;;;;7.15;3.80;;;;;;;;;;6180272;23;20012;-74
2022/09/26 06:38:54;;;;;;;8.13;4.10;;;12.40;99.90;;;;;;6180164;23;20009;-75
2022/09/26 06:41:20;;;;;;;6.40;4.00;;;;;;;;;;6179992;23;20005;-74
2022/09/26 06:43:46;;;;;;;8.65;3.45;;;;;;;;;;6180344;23;20151;-74
2022/09/26 06:46:15;;;;;;;9.30;3.60;;;12.30;99.90;;;;;;6179686;23;20020;-77
2022/09/26 06:48:41;;;;;;;10.10;3.97;;;12.20;99.90;;;;;;6180088;23;19997;-78
2022/09/26 06:51:08;;;;;;;9.27;4.30;;;;;;;;;;6146153;23;20048;-79
2022/09/26 06:53:34;;;;;;;6.43;3.25;;;;;;;;;;6150217;23;20009;-75
2022/09/26 06:56:00;;;;;;;9.57;4.07;;;14.30;99.90;;;;;;6150101;23;20336;-75
2022/09/26 06:58:26;;;;;;;5.65;3.38;;;15.30;99.90;;;;;;6151226;23;20032;-75
2022/09/26 07:00:52;;;;;;;6.40;3.78;;;17.00;99.90;;;;;;6150624;23;20010;-75
2022/09/26 07:03:18;;;;;;;7.28;4.28;;;18.60;99.90;;;;;;6150150;23;20010;-75
2022/09/26 07:05:44;;;;;;;8.05;4.82;;;19.90;95.90;;;;;;6149976;23;20016;-75
2022/09/26 07:08:10;;;;;;;7.28;4.25;;;19.70;98.20;;;;;;6149817;23;20009;-75
2022/09/26 07:10:37;;;;;;;6.85;4.68;;;;;;;;;;6150492;23;20025;-74
2022/09/26 07:13:05;;;;;;;4.05;3.45;;;24.80;81.00;;;;;;6150249;23;20464;-75
2022/09/26 07:15:33;;;;;;;4.07;3.67;;;28.00;70.40;;;;;;6149664;23;20449;-76
2022/09/26 07:18:03;;;;;;;6.93;4.65;;;30.90;68.00;;;;;;6150409;23;20029;-76
2022/09/26 07:20:31;;;;;;;5.50;3.75;;;33.70;53.70;;;;;;6150446;23;20005;-76
2022/09/26 07:23:01;;;;;;;5.80;3.45;;;36.40;55.50;;;;;;6150600;23;20115;-76
2022/09/26 07:25:28;;;;;;;5.65;3.53;;;;;;;;;;6150437;23;20006;-84
2022/09/26 07:27:54;;;;;;;3.22;2.88;;;40.10;46.70;;;;;;6152732;23;20060;-77
2022/09/26 07:30:19;;;;;;;5.97;2.30;;;41.90;40.70;;;;;;6152102;23;20010;-78
2022/09/26 07:32:46;;;;;;;3.50;2.30;;;;;;;;;;6151584;23;20005;-77
2022/09/26 07:35:13;;;;;;;6.63;2.97;;;41.10;41.50;;;;;;6152503;23;20010;-77
2022/09/26 07:37:38;;;;;;;;;;;41.20;36.60;;;;;;6152760;23;20010;-77
2022/09/26 07:40:04;;;;;;;6.65;2.90;;;42.50;40.00;;;;;;6151922;23;20361;-77
2022/09/26 07:42:30;;;;;;;;;;;42.60;35.50;;;;;;6152716;23;20002;-77
2022/09/26 07:44:56;;;;;;;2.90;2.08;;;44.80;38.00;;;;;;6151130;23;19900;-77
2022/09/26 07:50:13;;;;;;;3.50;2.33;;;35.50;34.60;;;;;;6152002;23;20664;-76
2022/09/26 07:52:41;;;;;;;4.05;2.22;;;32.20;41.90;;;;;;6151508;23;20088;-77
2022/09/26 07:55:07;;;;;;;4.05;2.80;;;30.80;41.00;;;;;;6152003;23;20005;-76
2022/09/26 07:57:34;;;;;;;3.83;2.17;;;31.60;48.50;;;;;;6152267;23;20027;-77
2022/09/26 08:00:01;;;;;;;5.22;2.72;;;32.10;38.20;;;;;;6152072;23;20016;-77
2022/09/26 08:02:32;;;;;;;5.18;2.67;;;33.10;37.00;;;;;;6151327;23;20013;-81
2022/09/26 08:04:59;;;;;;;3.35;1.90;;;32.40;42.40;;;;;;6151581;23;20014;-79
2022/09/26 08:07:25;;;;;;;5.47;2.13;;;;;;;;;;6151115;23;20017;-78
2022/09/26 08:09:54;;;;;;;6.43;2.22;;;31.70;36.20;;;;;;6151839;23;19998;-78
2022/09/26 08:12:20;;;;;;;4.43;2.13;;;;;;;;;;6151634;23;20013;-77
2022/09/26 08:14:51;;;;;;;4.07;2.50;;;34.00;39.10;;;;;;6149169;23;20085;-78
2022/09/26 08:17:17;;;;;;;5.03;2.15;;;37.40;39.80;;;;;;6151540;23;20422;-79
2022/09/26 08:19:43;;;;;;;2.45;1.70;;;41.70;36.50;;;;;;6152187;23;20013;-78
2022/09/26 08:22:10;;;;;;;3.78;1.63;;;44.70;34.00;;;;;;6151292;23;20081;-79
2022/09/26 08:24:36;;;;;;;3.03;1.80;;;43.00;33.30;;;;;;6151941;23;20072;-78
2022/09/26 08:27:01;;;;;;;1.40;0.93;;;43.80;33.80;;;;;;6151958;23;20045;-78
2022/09/26 08:29:29;;;;;;;;;;;43.80;29.70;;;;;;6151526;23;20005;-79
2022/09/26 08:31:57;;;;;;;1.20;1.05;;;;;;;;;;6151343;23;19907;-79
2022/09/26 08:34:22;;;;;;;1.88;1.42;;;44.20;32.40;;;;;;6151915;23;20013;-79
2022/09/26 08:36:52;;;;;;;2.90;1.50;;;43.90;28.20;;;;;;6150963;23;20043;-78
2022/09/26 08:39:18;;;;;;;2.40;1.30;;;43.90;32.70;;;;;;6151353;23;20037;-79
2022/09/26 08:41:53;;;;;;;2.08;1.50;;;44.10;30.10;;;;;;6151977;23;20392;-79
2022/09/26 08:44:21;;;;;;;2.17;1.30;;;;;;;;;;6150305;23;20011;-78
2022/09/26 08:47:06;;;;;;;2.88;1.92;;;45.30;27.70;;;;;;6151601;23;20380;-79
2022/09/26 08:49:58;;;;;;;1.80;1.30;;;46.90;30.20;;;;;;6151519;23;20065;-78
2022/09/26 08:52:47;;;;;;;2.10;1.60;;;47.30;25.10;;;;;;6151309;23;20009;-79
2022/09/26 08:55:21;;;;;;;1.23;1.00;;;46.40;27.90;;;;;;6060972;23;20029;-78
2022/09/26 08:57:48;;;;;;;2.22;1.45;;;47.40;29.50;;;;;;6060869;23;20066;-78
2022/09/26 09:00:26;;;;;;;2.03;1.60;;;48.10;28.60;;;;;;6060569;23;20112;-78
2022/09/26 09:02:58;;;;;;;1.63;1.30;;;48.30;28.00;;;;;;6060709;23;20449;-79
2022/09/26 09:05:34;;;;;;;1.60;1.20;;;43.60;26.30;;;;;;6060332;23;20014;-79
2022/09/26 09:08:06;;;;;;;1.60;1.23;;;42.10;30.00;;;;;;6060240;23;20094;-78
2022/09/26 09:11:10;;;;;;;3.67;2.53;;;39.40;29.20;;;;;;6061089;23;20011;-78
2022/09/26 09:13:59;;;;;;;2.47;1.50;;;42.20;29.80;;;;;;6041593;23;20010;-79
2022/09/26 09:16:53;;;;;;;3.65;1.30;;;41.10;26.70;;;;;;6060491;23;20422;-79
2022/09/26 09:19:37;;;;;;;2.00;1.48;;;43.10;30.00;;;;;;6060070;23;20422;-78
2022/09/26 09:22:25;;;;;;;2.10;1.13;;;40.20;26.20;;;;;;6059686;23;20074;-79
2022/09/26 09:25:17;;;;;;;1.83;1.20;;;40.20;27.60;;;;;;6060490;23;20010;-79
2022/09/26 09:27:45;;;;;;;5.63;1.15;;;43.00;30.20;;;;;;6060119;23;20011;-78
2022/09/26 09:30:30;;;;;;;1.27;0.93;;;45.60;29.10;;;;;;6059763;23;20021;-80
2022/09/26 09:33:01;;;;;;;;;;;45.60;26.00;;;;;;6130796;23;20005;-78
2022/09/26 09:36:04;;;;;;;3.15;1.25;;;40.80;29.70;;;;;;6150690;23;19904;-79
2022/09/26 09:38:32;;;;;;;1.85;0.88;;;37.80;29.50;;;;;;6119587;23;20334;-78
2022/09/26 09:41:06;;;;;;;2.60;0.90;;;35.70;28.90;;;;;;6150693;23;20010;-84
2022/09/26 09:43:38;;;;;;;1.17;0.98;;;38.50;33.90;;;;;;6149961;23;20536;-83
2022/09/26 09:46:12;;;;;;;1.42;0.90;;;39.80;31.70;;;;;;6150186;23;20008;-77
2022/09/26 09:48:38;;;;;;;1.63;0.98;;;;;;;;;;6150857;23;20445;-77
2022/09/26 09:51:14;;;;;;;;;;;39.60;27.30;;;;;;6149235;23;20001;-77
2022/09/26 09:54:14;;;;;;;1.27;0.98;;;40.30;29.50;;;;;;6146100;23;19971;-76
2022/09/26 09:56:49;;;;;;;1.05;0.60;;;39.60;26.70;;;;;;6150284;23;20017;-78
2022/09/26 09:59:38;;;;;;;2.03;1.10;;;38.10;28.10;;;;;;6150685;23;20009;-76
2022/09/26 10:02:29;;;;;;;2.00;0.93;;;40.00;29.40;;;;;;6150198;23;20072;-77
2022/09/26 10:05:05;;;;;;;1.60;0.73;;;41.60;30.10;;;;;;6150792;23;20016;-77
2022/09/26 10:07:30;;;;;;;2.50;0.98;;;41.80;27.90;;;;;;6146327;23;20005;-77
2022/09/26 10:09:56;;;;;;;3.90;0.80;;;42.80;29.30;;;;;;6150211;23;20005;-76
2022/09/26 10:12:28;;;;;;;1.42;0.70;;;39.90;31.40;;;;;;6150305;23;20056;-76
2022/09/26 10:14:58;;;;;;;1.63;0.68;;;41.30;30.80;;;;;;6150432;23;20005;-76
2022/09/26 10:17:26;;;;;;;2.45;0.65;;;;;;;;;;6150401;23;20025;-77
2022/09/26 10:19:52;;;;;;;1.20;0.60;;;;;;;;;;6150086;23;20009;-77
2022/09/26 10:22:41;;;;;;;1.10;0.70;;;43.80;24.80;;;;;;6149717;23;20005;-77
2022/09/26 10:25:19;;;;;;;0.70;0.68;;;45.50;24.60;;;;;;6151054;23;20056;-77
2022/09/26 10:27:54;;;;;;;2.75;0.47;;;45.50;27.00;;;;;;6150424;23;20040;-77
2022/09/26 10:30:30;;;;;;;0.82;0.73;;;45.60;27.30;;;;;;6151014;23;20010;-77
2022/09/26 10:33:00;;;;;;;2.08;0.70;;;44.80;27.50;;;;;;6150836;23;20009;-77
2022/09/26 10:35:45;;;;;;;3.33;0.90;;;43.70;25.20;;;;;;6150108;23;20008;-76
2022/09/26 10:38:18;;;;;;;0.70;0.50;;;42.50;28.30;;;;;;6150519;23;20017;-77
2022/09/26 10:40:54;;;;;;;1.00;0.70;;;41.50;24.70;;;;;;6150164;23;20060;-77
2022/09/26 10:43:34;;;;;;;3.60;0.73;;;40.80;24.90;;;;;;6150557;23;20396;-77
2022/09/26 10:46:03;;;;;;;0.68;0.45;;;41.70;27.00;;;;;;6150111;23;20009;-76
2022/09/26 10:48:48;;;;;;;1.08;0.50;;;40.30;25.30;;;;;;6150405;23;20005;-76
2022/09/26 10:51:30;;;;;;;3.25;0.68;;;39.20;31.10;;;;;;6150371;23;20005;-76
2022/09/26 10:54:08;;;;;;;1.80;0.65;;;38.20;30.50;;;;;;6150502;23;20036;-76
2022/09/26 10:56:42;;;;;;;2.22;0.77;;;37.40;26.10;;;;;;6124102;23;20021;-76
2022/09/26 10:59:09;;;;;;;0.90;0.52;;;34.40;34.70;;;;;;6149911;23;20436;-76
2022/09/26 11:01:43;;;;;;;4.28;0.70;;;33.70;29.70;;;;;;6152118;23;20017;-76
2022/09/26 11:07:29;;;;;;;3.08;0.90;;;32.90;28.50;;;;;;6152010;23;20095;-76
2022/09/26 11:10:01;;;;;;;1.87;0.77;;;33.60;30.80;;;;;;6152541;23;20010;-76
2022/09/26 11:12:29;;;;;;;3.05;0.63;;;33.50;28.70;;;;;;6151908;23;20279;-75
2022/09/26 11:14:58;;;;;;;1.23;0.65;;;33.90;33.70;;;;;;6152363;23;20073;-76
2022/09/26 11:17:44;;;;;;;1.17;0.52;;;34.50;36.30;;;;;;6151908;23;20022;-76
2022/09/26 11:20:18;;;;;;;2.17;0.40;;;34.10;36.70;;;;;;6151936;23;20388;-76
2022/09/26 11:23:26;;;;;;;1.08;0.80;;;33.70;36.90;;;;;;6152474;23;20010;-76
2022/09/26 11:26:05;;;;;;;0.85;0.60;;;33.80;32.00;;;;;;6152237;23;20383;-76
2022/09/26 11:29:03;;;;;;;1.35;0.55;;;32.70;36.50;;;;;;6151370;23;20059;-76
2022/09/26 11:31:36;;;;;;;0.40;0.40;;;31.30;29.00;;;;;;6151613;23;20001;-82
2022/09/26 11:34:04;;;;;;;1.10;0.60;;;31.20;29.30;;;;;;6151727;23;20006;-76
2022/09/26 11:36:45;;;;;;;1.77;0.80;;;31.80;29.60;;;;;;6151817;23;20037;-77
2022/09/26 11:39:29;;;;;;;0.40;0.35;;;32.20;39.10;;;;;;6150140;23;20452;-76
2022/09/26 11:42:04;;;;;;;1.38;0.70;;;31.50;39.40;;;;;;6150864;23;20006;-76
2022/09/26 11:44:49;;;;;;;0.85;0.38;;;31.20;33.10;;;;;;6150699;23;20001;-76
2022/09/26 11:47:37;;;;;;;1.48;0.50;;;30.40;29.40;;;;;;6151554;23;20005;-76
2022/09/26 11:50:03;;;;;;;1.27;0.55;;;;;;;;;;6151802;23;20005;-76
2022/09/26 11:52:29;;;;;;;0.70;0.40;;;;;;;;;;6151702;23;20012;-76
2022/09/26 11:55:07;;;;;;;1.92;0.70;;;28.20;31.30;;;;;;6152162;23;20029;-76
2022/09/26 11:57:49;;;;;;;3.35;0.90;;;28.40;31.50;;;;;;6150794;23;20444;-76
2022/09/26 12:00:26;;;;;;;2.83;1.27;;;28.40;36.10;;;;;;6152093;23;20318;-81
2022/09/26 12:03:10;;;;;;;1.65;0.90;;;28.60;32.20;;;;;;6151680;23;20014;-76
2022/09/26 12:05:58;;;;;;;1.58;0.70;;;28.70;43.60;;;;;;6151967;23;20064;-76
2022/09/26 12:09:03;;;;;;;1.00;0.63;;;27.20;44.40;;;;;;6135595;23;20017;-76
2022/09/26 12:11:41;;;;;;;1.27;0.90;;;25.60;46.10;;;;;;6150887;23;20012;-76
2022/09/26 12:14:54;;;;;;;1.13;0.85;;;25.20;36.40;;;;;;6150005;23;20009;-76
2022/09/26 12:17:42;;;;;;;0.95;0.68;;;25.30;43.80;;;;;;6060584;23;20015;-76
2022/09/26 12:20:31;;;;;;;5.60;1.10;;;;;;;;;;6060478;23;20027;-75
2022/09/26 12:23:16;;;;;;;1.30;0.90;;;24.10;38.90;;;;;;5975466;24;20051;-76
2022/09/26 12:26:07;;;;;;;1.08;0.80;;;24.20;39.10;;;;;;5975075;23;20177;-76
2022/09/26 12:28:56;;;;;;;1.58;0.90;;;24.20;39.20;;;;;;5975177;23;20053;-76
2022/09/26 12:31:41;;;;;;;1.50;1.00;;;24.90;43.60;;;;;;5975229;23;20023;-75
2022/09/26 12:34:18;;;;;;;2.22;1.33;;;25.60;39.50;;;;;;5974892;23;20003;-76
2022/09/26 12:37:45;;;;;;;2.80;0.90;;;25.80;37.00;;;;;;5975633;24;20054;-76
2022/09/26 12:40:29;;;;;;;;;;;25.90;37.60;;;;;;5893621;24;20082;-76
2022/09/26 12:43:06;;;;;;;3.70;0.88;;;25.40;36.80;;;;;;5892903;24;19904;-76
2022/09/26 12:45:53;;;;;;;1.42;0.75;;;25.10;37.20;;;;;;5892509;24;20014;-76
2022/09/26 12:48:21;;;;;;;;;;;25.10;37.90;;;;;;5892563;24;20005;-76
2022/09/26 12:51:22;;;;;;;2.50;1.10;;;24.60;38.50;;;;;;5892924;24;19950;-75
2022/09/26 12:53:48;;;;;;;0.90;0.73;;;;;;;;;;5944610;24;20104;-75
2022/09/26 12:56:41;;;;;;;0.68;0.60;;;24.50;42.50;;;;;;5947146;24;20480;-75
2022/09/26 12:59:37;;;;;;;1.58;0.82;;;24.40;37.70;;;;;;5958335;23;20496;-75
2022/09/26 13:02:09;;;;;;;1.88;1.15;;;;;;;;;;6031169;23;20003;-76
2022/09/26 13:05:02;;;;;;;1.45;0.70;;;24.70;47.00;;;;;;6031273;23;20090;-75
2022/09/26 13:07:41;;;;;;;1.00;0.80;;;24.80;37.10;;;;;;6030952;23;20007;-81
2022/09/26 13:10:07;;;;;;;1.58;0.82;;;;;;;;;;6066235;23;20081;-80
2022/09/26 13:13:05;;;;;;;0.90;0.70;;;24.30;49.30;;;;;;6150111;23;20028;-75
2022/09/26 13:15:55;;;;;;;0.88;0.55;;;24.10;46.20;;;;;;6060559;23;20003;-76
2022/09/26 13:18:38;;;;;;;1.20;1.02;;;23.70;42.70;;;;;;6059956;23;20025;-76
2022/09/26 13:21:12;;;;;;;9.23;0.88;;;23.50;38.00;;;;;;6060154;23;20010;-75
2022/09/26 13:23:44;;;;;;;2.28;0.60;;;23.30;38.70;;;;;;6060357;23;20685;-75
2022/09/26 13:26:42;;;;;;;0.57;0.57;;;23.50;39.70;;;;;;6059379;23;20003;-76
2022/09/26 13:29:12;;;;;;;2.40;0.75;;;23.10;38.30;;;;;;6043740;23;20018;-75
2022/09/26 13:31:46;;;;;;;1.33;0.98;;;22.90;39.20;;;;;;6059491;23;20030;-78
2022/09/26 13:34:36;;;;;;;1.13;0.85;;;22.70;42.80;;;;;;6059862;23;20015;-86
2022/09/26 13:37:03;;;;;;;1.05;0.80;;;22.60;39.40;;;;;;6060921;23;20018;-82
2022/09/26 13:39:32;;;;;;;1.30;0.98;;;22.30;52.00;;;;;;6060496;23;20509;-76
2022/09/26 13:42:10;;;;;;;1.92;1.00;;;21.90;40.90;;;;;;6060039;23;20022;-81
2022/09/26 13:44:42;;;;;;;;;;;22.00;41.80;;;;;;6060403;23;20003;-82
2022/09/26 13:47:32;;;;;;;5.53;1.40;;;21.10;43.40;;;;;;6059597;23;19929;-75
2022/09/26 13:50:17;;;;;;;1.10;1.00;;;20.70;46.00;;;;;;6058887;23;20039;-74
2022/09/26 13:53:06;;;;;;;3.75;1.45;;;20.80;43.50;;;;;;6115129;23;20519;-75
2022/09/26 13:55:34;;;;;;;0.93;0.90;;;20.70;44.10;;;;;;6150212;23;20018;-74
2022/09/26 13:58:05;;;;;;;2.72;1.05;;;;;;;;;;6149010;23;20021;-74